Time;durP1;ratioP1;P1;durP2;ratioP2;P2;SDS_P1;SDS_P2;PMS_P1;PMS_P2;Temp;Humidity;BMP_temperature;BMP_pressure;BME280_temperature;BME280_humidity;BME280_pressure;Samples;Min_cycle;Max_cycle;Signal;HPM_P1;HPM_P2
2021/03/05 00:01:57;;;;;;;21.55;7.50;;;;;;;;;;5030091;28;20200;-73
2021/03/05 00:04:24;;;;;;;13.80;6.07;;;;;;;;;;5018583;28;20207;-74
2021/03/05 00:06:51;;;;;;;23.65;7.13;;;;;;;;;;5026286;28;20193;-73
2021/03/05 00:09:18;;;;;;;15.38;5.97;;;;;;;;;;5030388;28;20251;-73
2021/03/05 00:11:44;;;;;;;11.82;6.28;;;;;;;;;;5030186;28;20289;-74
2021/03/05 00:14:11;;;;;;;13.68;5.63;;;;;;;;;;5030380;28;20231;-74
2021/03/05 00:16:38;;;;;;;14.85;5.10;;;;;;;;;;5031792;28;20688;-73
2021/03/05 00:19:06;;;;;;;14.73;6.35;;;;;;;;;;5032244;28;20706;-73
2021/03/05 00:21:33;;;;;;;12.73;5.47;;;;;;;;;;5032235;28;20206;-73
2021/03/05 00:24:00;;;;;;;14.65;5.35;;;;;;;;;;5030304;28;20278;-73
2021/03/05 00:26:27;;;;;;;9.98;5.95;;;;;;;;;;5017888;28;20743;-73
2021/03/05 00:28:53;;;;;;;12.77;5.78;;;;;;;;;;5012976;28;20202;-73
2021/03/05 00:31:20;;;;;;;22.13;7.57;;;;;;;;;;5010739;28;20205;-72
2021/03/05 00:33:47;;;;;;;14.27;6.40;;;;;;;;;;5010429;28;20228;-73
2021/03/05 00:36:15;;;;;;;19.17;7.20;;;;;;;;;;5010780;28;20213;-73
2021/03/05 00:38:42;;;;;;;17.58;7.50;;;;;;;;;;5031143;28;20210;-73
2021/03/05 00:41:09;;;;;;;13.35;7.18;;;;;;;;;;5030871;28;20563;-74
2021/03/05 00:43:36;;;;;;;16.25;7.85;;;;;;;;;;5032058;28;20758;-74
2021/03/05 00:46:03;;;;;;;19.15;8.02;;;;;;;;;;5031382;28;20206;-72
2021/03/05 00:48:30;;;;;;;23.45;8.13;;;;;;;;;;5018013;28;20202;-74
2021/03/05 00:50:56;;;;;;;13.60;7.57;;;;;;;;;;5024988;28;20736;-73
2021/03/05 00:53:24;;;;;;;16.13;7.95;;;;;;;;;;5030167;28;20228;-74
2021/03/05 00:55:51;;;;;;;16.45;7.50;;;;;;;;;;5030677;28;20209;-72
2021/03/05 00:58:18;;;;;;;10.80;7.45;;;;;;;;;;5028002;28;20232;-73
2021/03/05 01:00:45;;;;;;;18.38;7.63;;;;;;;;;;5026896;28;20251;-73
2021/03/05 01:03:11;;;;;;;23.83;8.35;;;;;;;;;;5031991;28;20253;-74
2021/03/05 01:05:39;;;;;;;11.68;7.22;;;;;;;;;;5030832;28;20243;-73
2021/03/05 01:08:06;;;;;;;14.10;7.57;;;;;;;;;;5021458;28;20232;-73
2021/03/05 01:10:36;;;;;;;17.70;6.70;;;;;;;;;;5015581;28;20348;-73
2021/03/05 01:13:03;;;;;;;12.50;6.50;;;;;;;;;;5013731;28;20196;-73
2021/03/05 01:15:30;;;;;;;11.40;6.50;;;;;;;;;;5013661;28;20296;-73
2021/03/05 01:17:57;;;;;;;13.70;5.32;;;;;;;;;;5014802;28;20226;-73
2021/03/05 01:20:25;;;;;;;14.88;6.10;;;;;;;;;;5035447;28;20206;-74
2021/03/05 01:22:51;;;;;;;17.80;6.40;;;;;;;;;;5035289;28;20202;-73
2021/03/05 01:25:20;;;;;;;11.63;5.20;;;;;;;;;;5035457;28;20200;-73
2021/03/05 01:27:48;;;;;;;18.17;5.63;;;;;;;;;;5032686;28;20206;-73
2021/03/05 01:30:15;;;;;;;16.98;5.95;;;;;;;;;;5021071;28;20395;-74
2021/03/05 01:32:42;;;;;;;18.77;7.63;;;;;;;;;;5015059;28;20223;-75
2021/03/05 01:35:11;;;;;;;14.70;5.97;;;;;;;;;;5013266;28;20541;-75
2021/03/05 01:37:37;;;;;;;13.73;6.15;;;;;;;;;;5012930;28;20223;-73
2021/03/05 01:40:05;;;;;;;16.80;6.22;;;;;;;;;;5013908;28;20293;-74
2021/03/05 01:42:32;;;;;;;14.23;6.10;;;;;;;;;;5035004;28;20534;-74
2021/03/05 01:44:59;;;;;;;8.90;5.72;;;;;;;;;;5034657;28;20697;-75
2021/03/05 01:47:26;;;;;;;16.10;5.70;;;;;;;;;;5017335;28;20653;-75
2021/03/05 01:49:53;;;;;;;11.18;5.65;;;;;;;;;;5032302;28;20204;-75
2021/03/05 01:52:20;;;;;;;13.68;5.75;;;;;;;;;;5020653;28;20315;-75
2021/03/05 01:54:47;;;;;;;19.25;5.03;;;;;;;;;;5015264;28;20231;-73
2021/03/05 01:57:14;;;;;;;18.83;5.15;;;;;;;;;;5012883;28;20221;-74
2021/03/05 01:59:41;;;;;;;14.60;5.07;;;;;;;;;;5012747;28;20662;-74
2021/03/05 02:02:09;;;;;;;13.40;5.20;;;;;;;;;;5013263;28;20240;-75
2021/03/05 02:04:36;;;;;;;11.68;5.20;;;;;;;;;;5033904;28;20631;-75
2021/03/05 02:07:03;;;;;;;15.18;4.78;;;;;;;;;;5033239;28;20681;-74
2021/03/05 02:09:31;;;;;;;12.70;5.30;;;;;;;;;;5034707;28;20597;-73
2021/03/05 02:11:57;;;;;;;13.73;4.82;;;;;;;;;;5032176;28;20224;-75
2021/03/05 02:14:25;;;;;;;9.32;4.78;;;;;;;;;;5020263;28;20215;-73
2021/03/05 02:16:55;;;;;;;11.50;5.78;;;;;;;;;;5013695;28;20711;-74
2021/03/05 02:19:31;;;;;;;9.30;5.10;;;;;;;;;;5012588;28;20202;-75
2021/03/05 02:22:12;;;;;;;12.98;5.72;;;;;;;;;;5012402;28;20207;-74
2021/03/05 02:24:53;;;;;;;8.90;4.95;;;;;;;;;;4998040;28;21894;-74
2021/03/05 02:27:31;;;;;;;12.30;4.53;;;;;;;;;;5018872;28;20657;-74
2021/03/05 02:30:12;;;;;;;24.35;5.63;;;;;;;;;;5034097;28;20204;-74
2021/03/05 02:32:44;;;;;;;11.68;4.43;;;;;;;;;;5033267;28;20290;-74
2021/03/05 02:35:11;;;;;;;9.90;4.28;;;;;;;;;;5025943;28;20230;-75
2021/03/05 02:37:40;;;;;;;15.20;4.68;;;;;;;;;;5019393;28;20212;-75
2021/03/05 02:40:09;;;;;;;10.13;5.13;;;;;;;;;;5011571;28;20200;-72
2021/03/05 02:42:38;;;;;;;14.82;5.00;;;;;;;;;;5011916;28;20207;-74
2021/03/05 02:45:08;;;;;;;18.60;6.10;;;;;;;;;;5011987;28;20220;-73
2021/03/05 02:47:35;;;;;;;11.50;5.07;;;;;;;;;;5021398;28;20200;-75
2021/03/05 02:50:04;;;;;;;25.42;6.93;;;;;;;;;;5033745;28;20219;-74
2021/03/05 02:52:31;;;;;;;13.00;6.35;;;;;;;;;;5032626;28;20217;-75
2021/03/05 02:54:59;;;;;;;24.00;9.50;;;;;;;;;;5033553;28;20234;-75
2021/03/05 02:57:29;;;;;;;21.58;9.65;;;;;;;;;;5025110;28;20216;-74
2021/03/05 02:59:56;;;;;;;25.73;11.45;;;;;;;;;;5018649;28;20209;-73
2021/03/05 03:02:24;;;;;;;21.50;9.93;;;;;;;;;;5011182;28;20208;-74
2021/03/05 03:04:51;;;;;;;23.98;10.43;;;;;;;;;;5011319;28;20228;-73
2021/03/05 03:07:18;;;;;;;27.20;10.43;;;;;;;;;;5011639;28;20655;-74
2021/03/05 03:09:46;;;;;;;25.58;9.75;;;;;;;;;;5021103;28;20196;-74
2021/03/05 03:12:15;;;;;;;20.20;9.20;;;;;;;;;;5033082;28;20229;-74
2021/03/05 03:14:43;;;;;;;19.25;9.30;;;;;;;;;;5033011;28;20738;-75
2021/03/05 03:17:11;;;;;;;22.20;8.68;;;;;;;;;;5033024;28;20243;-74
2021/03/05 03:19:39;;;;;;;22.65;8.30;;;;;;;;;;5007550;28;20194;-73
2021/03/05 03:22:07;;;;;;;23.17;7.85;;;;;;;;;;5020688;28;20553;-74
2021/03/05 03:24:34;;;;;;;20.48;7.45;;;;;;;;;;5030423;28;20219;-73
2021/03/05 03:27:01;;;;;;;17.77;8.30;;;;;;;;;;5030771;28;20290;-73
2021/03/05 03:29:28;;;;;;;21.55;8.00;;;;;;;;;;5030901;28;20200;-75
2021/03/05 03:31:55;;;;;;;18.50;7.95;;;;;;;;;;5031577;28;20554;-74
2021/03/05 03:34:23;;;;;;;23.27;8.32;;;;;;;;;;5033109;28;20575;-74
2021/03/05 03:36:51;;;;;;;20.88;8.48;;;;;;;;;;5032891;28;20311;-75
2021/03/05 03:39:18;;;;;;;23.45;9.40;;;;;;;;;;5032781;28;20286;-73
2021/03/05 03:41:45;;;;;;;24.42;9.68;;;;;;;;;;5024271;28;20189;-74
2021/03/05 03:44:13;;;;;;;16.58;9.15;;;;;;;;;;5019929;28;20208;-74
2021/03/05 03:46:41;;;;;;;19.77;9.93;;;;;;;;;;5030211;28;20199;-75
2021/03/05 03:49:09;;;;;;;21.00;10.90;;;;;;;;;;5030864;28;20777;-72
2021/03/05 03:51:40;;;;;;;36.65;13.45;;;;;;;;;;5030889;28;20269;-74
2021/03/05 03:54:07;;;;;;;21.95;11.50;;;;;;;;;;5031367;28;20225;-73
2021/03/05 03:56:35;;;;;;;30.30;13.93;;;;;;;;;;5032509;28;20629;-73
2021/03/05 03:59:03;;;;;;;27.80;12.85;;;;;;;;;;5032699;28;20685;-74
2021/03/05 04:01:30;;;;;;;31.00;13.65;;;;;;;;;;5032335;28;20201;-73
2021/03/05 04:03:57;;;;;;;33.28;13.77;;;;;;;;;;5023588;28;20224;-74
2021/03/05 04:06:25;;;;;;;30.58;14.10;;;;;;;;;;5018014;28;20200;-75
2021/03/05 04:08:53;;;;;;;38.42;15.20;;;;;;;;;;5010225;28;20205;-74
2021/03/05 04:11:20;;;;;;;31.85;16.27;;;;;;;;;;5010321;28;20255;-74
2021/03/05 04:13:47;;;;;;;30.33;15.90;;;;;;;;;;5010449;28;20224;-74
2021/03/05 04:16:15;;;;;;;32.50;16.17;;;;;;;;;;5019960;28;20286;-74
2021/03/05 04:18:42;;;;;;;30.27;15.65;;;;;;;;;;5032251;28;20668;-73
2021/03/05 04:21:10;;;;;;;30.63;17.10;;;;;;;;;;5031355;28;20203;-75
2021/03/05 04:23:37;;;;;;;31.65;16.83;;;;;;;;;;5032187;28;20223;-74
2021/03/05 04:26:05;;;;;;;29.05;17.20;;;;;;;;;;5023786;28;20236;-74
2021/03/05 04:28:32;;;;;;;31.92;16.63;;;;;;;;;;4999985;28;20222;-73
2021/03/05 04:30:59;;;;;;;33.97;17.75;;;;;;;;;;5010123;28;20673;-75
2021/03/05 04:33:26;;;;;;;28.38;16.92;;;;;;;;;;5011442;28;20221;-74
2021/03/05 04:35:53;;;;;;;30.70;16.42;;;;;;;;;;5010466;28;20195;-74
2021/03/05 04:38:20;;;;;;;29.23;17.48;;;;;;;;;;5019234;28;20696;-74
2021/03/05 04:40:47;;;;;;;26.77;15.88;;;;;;;;;;5034178;28;20207;-74
2021/03/05 04:43:14;;;;;;;27.92;16.92;;;;;;;;;;5035918;28;20223;-74
2021/03/05 04:45:41;;;;;;;28.55;16.98;;;;;;;;;;5018406;28;20201;-74
2021/03/05 04:48:08;;;;;;;29.95;17.15;;;;;;;;;;5027968;28;20203;-73
2021/03/05 04:50:36;;;;;;;31.42;16.60;;;;;;;;;;5022772;28;20230;-74
2021/03/05 04:53:03;;;;;;;28.00;15.57;;;;;;;;;;5033415;28;20209;-75
2021/03/05 04:55:30;;;;;;;27.75;16.58;;;;;;;;;;5033247;28;20293;-75
2021/03/05 04:57:57;;;;;;;28.50;17.20;;;;;;;;;;5033723;28;20241;-76
2021/03/05 05:00:24;;;;;;;22.60;14.85;;;;;;;;;;5034309;28;20217;-74
2021/03/05 05:02:51;;;;;;;28.35;16.40;;;;;;;;;;5035639;28;20199;-74
2021/03/05 05:05:18;;;;;;;22.67;15.40;;;;;;;;;;5035492;28;20294;-74
2021/03/05 05:07:45;;;;;;;26.33;15.57;;;;;;;;;;5035290;28;20202;-74
2021/03/05 05:10:13;;;;;;;27.58;15.70;;;;;;;;;;5028108;28;20585;-75
2021/03/05 05:12:40;;;;;;;25.40;16.13;;;;;;;;;;5021735;28;20250;-75
2021/03/05 05:15:08;;;;;;;24.13;14.63;;;;;;;;;;5032957;28;20223;-75
2021/03/05 05:17:34;;;;;;;22.50;15.35;;;;;;;;;;5033125;28;20219;-74
2021/03/05 05:20:01;;;;;;;23.58;14.73;;;;;;;;;;5033454;28;20199;-74
2021/03/05 05:22:31;;;;;;;21.40;14.23;;;;;;;;;;5016023;28;20203;-73
2021/03/05 05:24:58;;;;;;;24.35;15.30;;;;;;;;;;5035402;28;20257;-74
2021/03/05 05:27:25;;;;;;;21.13;14.32;;;;;;;;;;5035311;28;20560;-76
2021/03/05 05:29:52;;;;;;;23.42;14.38;;;;;;;;;;5035109;28;20724;-74
2021/03/05 05:32:19;;;;;;;22.85;15.55;;;;;;;;;;5028211;28;20244;-75
2021/03/05 05:34:45;;;;;;;22.98;13.95;;;;;;;;;;5020738;28;20601;-74
2021/03/05 05:37:12;;;;;;;18.83;12.95;;;;;;;;;;5012730;28;20216;-73
2021/03/05 05:39:39;;;;;;;24.23;13.25;;;;;;;;;;5013292;28;20203;-74
2021/03/05 05:42:08;;;;;;;16.95;12.68;;;;;;;;;;5013191;28;20295;-73
2021/03/05 05:44:36;;;;;;;15.68;11.27;;;;;;;;;;5019818;28;20773;-74
2021/03/05 05:47:03;;;;;;;16.92;11.15;;;;;;;;;;5034863;28;20268;-73
2021/03/05 05:49:30;;;;;;;14.65;10.23;;;;;;;;;;5034703;28;20197;-74
2021/03/05 05:51:58;;;;;;;15.43;10.77;;;;;;;;;;5032629;28;20207;-73
2021/03/05 05:54:25;;;;;;;17.08;11.05;;;;;;;;;;5028634;28;20743;-74
2021/03/05 05:56:53;;;;;;;16.42;11.63;;;;;;;;;;5004689;28;20242;-75
2021/03/05 05:59:20;;;;;;;16.05;12.02;;;;;;;;;;4995531;28;20208;-74
2021/03/05 06:01:47;;;;;;;19.30;12.45;;;;;;;;;;5012491;28;20666;-73
2021/03/05 06:04:16;;;;;;;18.83;13.00;;;;;;;;;;5012620;28;20220;-75
2021/03/05 06:06:43;;;;;;;19.08;12.82;;;;;;;;;;5019133;28;20571;-75
2021/03/05 06:09:10;;;;;;;19.48;11.95;;;;;;;;;;5034603;28;20203;-74
2021/03/05 06:11:38;;;;;;;20.42;12.25;;;;;;;;;;5034396;28;20231;-74
2021/03/05 06:14:06;;;;;;;21.05;14.07;;;;;;;;;;5034334;28;20223;-73
2021/03/05 06:16:34;;;;;;;20.25;13.93;;;;;;;;;;5028148;28;20206;-74
2021/03/05 06:19:01;;;;;;;19.30;13.38;;;;;;;;;;5020225;28;20197;-74
2021/03/05 06:21:36;;;;;;;20.98;14.05;;;;;;;;;;5013676;28;20257;-74
2021/03/05 06:24:05;;;;;;;18.90;13.40;;;;;;;;;;5032293;28;20221;-74
2021/03/05 06:26:47;;;;;;;19.48;12.70;;;;;;;;;;5032090;28;20199;-73
2021/03/05 06:29:13;;;;;;;19.35;13.77;;;;;;;;;;5032490;28;20540;-74
2021/03/05 06:31:41;;;;;;;20.38;13.57;;;;;;;;;;5034106;28;20200;-73
2021/03/05 06:34:08;;;;;;;20.60;12.70;;;;;;;;;;5033890;28;20220;-73
2021/03/05 06:36:36;;;;;;;20.70;13.50;;;;;;;;;;5033955;28;20199;-73
2021/03/05 06:39:04;;;;;;;18.00;13.25;;;;;;;;;;5025976;28;20214;-74
2021/03/05 06:41:32;;;;;;;17.52;12.00;;;;;;;;;;5002685;28;20559;-74
2021/03/05 06:43:59;;;;;;;18.33;12.52;;;;;;;;;;5011467;28;20618;-73
2021/03/05 06:46:26;;;;;;;19.35;13.07;;;;;;;;;;5011922;28;20218;-73
2021/03/05 06:48:54;;;;;;;17.70;12.27;;;;;;;;;;5011818;28;20587;-73
2021/03/05 06:51:21;;;;;;;16.92;11.32;;;;;;;;;;5003095;28;20260;-75
2021/03/05 06:53:48;;;;;;;14.60;11.30;;;;;;;;;;5033616;28;20274;-74
2021/03/05 06:56:30;;;;;;;15.98;11.82;;;;;;;;;;5033438;28;20196;-74
2021/03/05 06:59:00;;;;;;;17.55;10.23;;;;;;;;;;5018264;28;20274;-73
2021/03/05 07:01:27;;;;;;;17.58;10.82;;;;;;;;;;5024080;28;20201;-72
2021/03/05 07:04:09;;;;;;;15.68;10.73;;;;;;;;;;5017750;28;20220;-76
2021/03/05 07:06:37;;;;;;;19.65;10.65;;;;;;;;;;4996319;28;20195;-76
2021/03/05 07:09:05;;;;;;;13.25;9.52;;;;;;;;;;5011477;28;20725;-74
2021/03/05 07:11:34;;;;;;;15.02;10.20;;;;;;;;;;5011687;28;20315;-75
2021/03/05 07:14:01;;;;;;;12.80;9.32;;;;;;;;;;5024998;28;20216;-73
2021/03/05 07:16:37;;;;;;;15.23;9.60;;;;;;;;;;5033285;28;20203;-73
2021/03/05 07:19:04;;;;;;;14.48;9.35;;;;;;;;;;5031959;28;20206;-73
2021/03/05 07:21:31;;;;;;;14.88;8.55;;;;;;;;;;5033226;28;20256;-73
2021/03/05 07:24:01;;;;;;;13.55;9.32;;;;;;;;;;5021953;28;20213;-75
2021/03/05 07:26:28;;;;;;;11.68;8.98;;;;;;;;;;5016186;28;20284;-74
2021/03/05 07:28:55;;;;;;;14.88;9.15;;;;;;;;;;5015071;28;20188;-74
2021/03/05 07:31:24;;;;;;;10.02;8.32;;;;;;;;;;5022403;28;20198;-75
2021/03/05 07:33:52;;;;;;;8.73;7.80;;;;;;;;;;5010933;28;21002;-74
2021/03/05 07:36:19;;;;;;;10.65;7.88;;;;;;;;;;5007473;28;20200;-73
2021/03/05 07:38:47;;;;;;;10.77;7.90;;;;;;;;;;5018891;28;20235;-72
2021/03/05 07:41:16;;;;;;;9.02;6.75;;;;;;;;;;5013291;28;20198;-74
2021/03/05 07:43:43;;;;;;;8.88;6.80;;;;;;;;;;5010652;28;20289;-73
2021/03/05 07:46:10;;;;;;;11.50;7.32;;;;;;;;;;5020507;28;20249;-73
2021/03/05 07:48:37;;;;;;;8.95;6.65;;;;;;;;;;5030095;28;20201;-74
2021/03/05 07:51:04;;;;;;;10.65;5.85;;;;;;;;;;5031258;28;20626;-74
2021/03/05 07:53:31;;;;;;;13.32;6.80;;;;;;;;;;5032519;28;20230;-73
2021/03/05 07:55:57;;;;;;;11.32;6.50;;;;;;;;;;5032567;28;20326;-74
2021/03/05 07:58:39;;;;;;;8.98;6.68;;;;;;;;;;5031428;28;20222;-73
2021/03/05 08:01:07;;;;;;;9.65;5.65;;;;;;;;;;5002945;28;20228;-74
2021/03/05 08:03:53;;;;;;;8.75;5.65;;;;;;;;;;5025922;28;20688;-74
2021/03/05 08:06:34;;;;;;;8.82;5.50;;;;;;;;;;5012813;28;20209;-74
2021/03/05 08:09:09;;;;;;;6.85;5.35;;;;;;;;;;5019929;28;20728;-75
2021/03/05 08:11:38;;;;;;;7.82;5.25;;;;;;;;;;5014657;28;20254;-73
2021/03/05 08:14:19;;;;;;;7.55;4.75;;;;;;;;;;5031904;28;20234;-72
2021/03/05 08:16:47;;;;;;;10.80;5.25;;;;;;;;;;5031949;28;20703;-74
2021/03/05 08:19:29;;;;;;;9.85;6.18;;;;;;;;;;5031054;28;20301;-74
2021/03/05 08:22:03;;;;;;;7.45;5.40;;;;;;;;;;5018659;28;20293;-74
2021/03/05 08:24:30;;;;;;;7.15;5.43;;;;;;;;;;5017173;28;20302;-73
2021/03/05 08:26:58;;;;;;;8.10;5.40;;;;;;;;;;5010199;28;20296;-74
2021/03/05 08:29:39;;;;;;;7.05;5.63;;;;;;;;;;5010193;28;20206;-75
2021/03/05 08:32:27;;;;;;;8.20;6.00;;;;;;;;;;4995088;28;20293;-74
2021/03/05 08:34:54;;;;;;;7.15;5.40;;;;;;;;;;5010998;28;20228;-74
2021/03/05 08:37:31;;;;;;;7.32;5.90;;;;;;;;;;5032277;28;20232;-74
2021/03/05 08:40:13;;;;;;;12.35;6.10;;;;;;;;;;5032172;28;20207;-75
2021/03/05 08:42:40;;;;;;;8.05;6.72;;;;;;;;;;5016574;28;20290;-74
2021/03/05 08:45:08;;;;;;;8.32;5.65;;;;;;;;;;5017694;28;20222;-74
2021/03/05 08:47:36;;;;;;;7.07;4.97;;;;;;;;;;5023863;28;20666;-73
2021/03/05 08:50:04;;;;;;;9.10;6.43;;;;;;;;;;5029928;28;20207;-73
2021/03/05 08:52:30;;;;;;;6.72;5.13;;;;;;;;;;5029760;28;20203;-74
2021/03/05 08:54:58;;;;;;;7.40;6.60;;;;;;;;;;5029860;28;20323;-73
2021/03/05 08:57:25;;;;;;;6.53;5.50;;;;;;;;;;5031433;28;20217;-74
2021/03/05 08:59:53;;;;;;;7.60;5.88;;;;;;;;;;5032013;28;20212;-74
2021/03/05 09:02:20;;;;;;;7.55;5.95;;;;;;;;;;5032004;28;20207;-75
2021/03/05 09:04:47;;;;;;;7.72;5.13;;;;;;;;;;5031866;28;20223;-74
2021/03/05 09:07:14;;;;;;;7.38;5.50;;;;;;;;;;5017605;28;20201;-73
2021/03/05 09:09:41;;;;;;;8.88;6.05;;;;;;;;;;5013390;28;20268;-73
2021/03/05 09:12:08;;;;;;;8.13;5.80;;;;;;;;;;5009975;28;20326;-74
2021/03/05 09:14:35;;;;;;;6.75;4.80;;;;;;;;;;4992612;28;20224;-72
2021/03/05 09:17:04;;;;;;;6.40;4.90;;;;;;;;;;5009885;28;20717;-73
2021/03/05 09:19:32;;;;;;;7.13;5.00;;;;;;;;;;5010689;28;20207;-74
2021/03/05 09:22:13;;;;;;;6.22;4.85;;;;;;;;;;5031777;28;20213;-75
2021/03/05 09:24:50;;;;;;;7.15;5.15;;;;;;;;;;5016547;28;20742;-74
2021/03/05 09:27:17;;;;;;;5.93;5.22;;;;;;;;;;5032708;28;20195;-74
2021/03/05 09:29:44;;;;;;;6.32;4.82;;;;;;;;;;5020952;28;20659;-74
2021/03/05 09:32:11;;;;;;;5.35;4.68;;;;;;;;;;5015837;28;20204;-74
2021/03/05 09:34:47;;;;;;;6.45;5.15;;;;;;;;;;5013308;28;20222;-73
2021/03/05 09:37:16;;;;;;;6.88;5.40;;;;;;;;;;5013444;28;20318;-74
2021/03/05 09:39:43;;;;;;;8.50;4.80;;;;;;;;;;5013858;28;20199;-75
2021/03/05 09:42:11;;;;;;;5.32;4.55;;;;;;;;;;5035122;28;20233;-75
2021/03/05 09:44:42;;;;;;;6.03;4.68;;;;;;;;;;5035021;28;20228;-74
2021/03/05 09:47:09;;;;;;;5.00;4.03;;;;;;;;;;5033838;28;20554;-76
2021/03/05 09:49:36;;;;;;;5.70;4.22;;;;;;;;;;5032480;28;20207;-75
2021/03/05 09:52:02;;;;;;;6.60;4.50;;;;;;;;;;5021271;28;20203;-74
2021/03/05 09:54:38;;;;;;;4.72;4.10;;;;;;;;;;5014602;28;20732;-75
2021/03/05 09:57:05;;;;;;;5.13;4.07;;;;;;;;;;5012654;28;20229;-74
2021/03/05 09:59:47;;;;;;;5.80;4.45;;;;;;;;;;5012672;28;20199;-74
2021/03/05 10:02:18;;;;;;;6.28;4.68;;;;;;;;;;5001708;28;20234;-76
2021/03/05 10:04:45;;;;;;;7.60;5.28;;;;;;;;;;5034589;28;20320;-75
2021/03/05 10:07:12;;;;;;;7.72;4.40;;;;;;;;;;5034571;28;20584;-76
2021/03/05 10:09:39;;;;;;;6.93;4.40;;;;;;;;;;5034517;28;20213;-74
2021/03/05 10:12:06;;;;;;;6.57;4.60;;;;;;;;;;5029176;28;20635;-74
2021/03/05 10:14:35;;;;;;;7.20;4.55;;;;;;;;;;5002964;28;20222;-73
2021/03/05 10:17:12;;;;;;;6.85;4.45;;;;;;;;;;5013234;28;20207;-75
2021/03/05 10:19:41;;;;;;;6.95;5.03;;;;;;;;;;5012408;28;20203;-75
2021/03/05 10:22:08;;;;;;;6.32;4.35;;;;;;;;;;5012926;28;20213;-75
2021/03/05 10:24:35;;;;;;;9.50;4.50;;;;;;;;;;5017950;28;20216;-75
2021/03/05 10:29:44;;;;;;;5.10;4.38;;;;;;;;;;5018698;28;20281;-74
2021/03/05 10:32:19;;;;;;;5.65;4.47;;;;;;;;;;5033067;28;20244;-74
2021/03/05 10:34:47;;;;;;;7.30;4.93;;;;;;;;;;5025728;28;20317;-73
2021/03/05 10:37:15;;;;;;;6.20;4.85;;;;;;;;;;5020925;28;20310;-74
2021/03/05 10:39:42;;;;;;;5.53;4.45;;;;;;;;;;5013910;28;20263;-73
2021/03/05 10:42:11;;;;;;;8.10;5.32;;;;;;;;;;5031767;28;20229;-74
2021/03/05 10:44:42;;;;;;;6.38;4.78;;;;;;;;;;5014404;28;20225;-73
2021/03/05 10:47:10;;;;;;;4.72;4.18;;;;;;;;;;5015327;28;20202;-74
2021/03/05 10:49:38;;;;;;;6.47;4.13;;;;;;;;;;5033803;28;20296;-74
2021/03/05 10:52:07;;;;;;;4.93;4.25;;;;;;;;;;5016636;28;20291;-76
2021/03/05 10:54:33;;;;;;;6.85;4.72;;;;;;;;;;5033681;28;20316;-75
2021/03/05 10:57:00;;;;;;;6.05;4.45;;;;;;;;;;5024599;28;20205;-75
2021/03/05 10:59:27;;;;;;;5.30;4.40;;;;;;;;;;5021142;28;20564;-75
2021/03/05 11:01:54;;;;;;;5.20;4.28;;;;;;;;;;5030954;28;20300;-75
2021/03/05 11:04:22;;;;;;;5.57;4.25;;;;;;;;;;5031326;28;20221;-75
2021/03/05 11:06:49;;;;;;;5.80;4.32;;;;;;;;;;5031637;28;20486;-75
2021/03/05 11:09:17;;;;;;;6.03;4.10;;;;;;;;;;5032721;28;20261;-75
2021/03/05 11:11:44;;;;;;;5.18;4.38;;;;;;;;;;5035677;28;20227;-75
2021/03/05 11:14:11;;;;;;;5.72;4.47;;;;;;;;;;5033615;28;20314;-76
2021/03/05 11:16:38;;;;;;;5.35;4.00;;;;;;;;;;5033415;28;20202;-75
2021/03/05 11:19:05;;;;;;;5.93;3.90;;;;;;;;;;5025761;28;20220;-75
2021/03/05 11:21:32;;;;;;;6.15;3.88;;;;;;;;;;5019081;28;20206;-75
2021/03/05 11:23:59;;;;;;;4.97;3.70;;;;;;;;;;5011226;28;20219;-72
2021/03/05 11:26:27;;;;;;;4.38;3.15;;;;;;;;;;5011282;28;20265;-75
2021/03/05 11:28:54;;;;;;;6.40;3.90;;;;;;;;;;4994315;28;20231;-75
2021/03/05 11:31:21;;;;;;;5.25;4.05;;;;;;;;;;5002454;28;20203;-74
2021/03/05 11:33:48;;;;;;;6.22;4.07;;;;;;;;;;5033093;28;20221;-73
2021/03/05 11:36:16;;;;;;;5.03;3.90;;;;;;;;;;5033085;28;20258;-73
2021/03/05 11:38:44;;;;;;;4.90;3.70;;;;;;;;;;5015739;28;20230;-75
2021/03/05 11:41:11;;;;;;;5.32;4.80;;;;;;;;;;5009629;28;20227;-75
2021/03/05 11:43:40;;;;;;;4.70;3.70;;;;;;;;;;5024180;28;20296;-74
2021/03/05 11:46:07;;;;;;;4.78;3.72;;;;;;;;;;4993299;28;20210;-74
2021/03/05 11:48:33;;;;;;;5.47;4.90;;;;;;;;;;5010636;28;20200;-74
2021/03/05 11:51:01;;;;;;;5.97;3.85;;;;;;;;;;5010392;28;20269;-74
2021/03/05 11:53:27;;;;;;;7.75;4.75;;;;;;;;;;5018589;28;20214;-76
2021/03/05 11:55:54;;;;;;;7.32;5.30;;;;;;;;;;5032568;28;20205;-74
2021/03/05 11:58:21;;;;;;;5.75;4.78;;;;;;;;;;5032356;28;20313;-75
2021/03/05 12:00:49;;;;;;;5.65;4.45;;;;;;;;;;5032556;28;20199;-74
2021/03/05 12:03:16;;;;;;;4.93;3.97;;;;;;;;;;5024893;28;20269;-75
2021/03/05 12:05:43;;;;;;;5.63;4.45;;;;;;;;;;5018101;28;20204;-74
2021/03/05 12:08:10;;;;;;;6.68;4.95;;;;;;;;;;5010197;28;20269;-74
2021/03/05 12:10:37;;;;;;;6.20;4.47;;;;;;;;;;5010284;28;20198;-75
2021/03/05 12:13:04;;;;;;;5.60;3.67;;;;;;;;;;5010387;28;20608;-73
2021/03/05 12:15:31;;;;;;;6.32;4.28;;;;;;;;;;5018112;28;20200;-73
2021/03/05 12:17:58;;;;;;;5.00;4.10;;;;;;;;;;5032241;28;20264;-73
2021/03/05 12:20:25;;;;;;;5.38;4.47;;;;;;;;;;5032334;28;20340;-74
2021/03/05 12:22:52;;;;;;;6.32;5.03;;;;;;;;;;5032316;28;20213;-73
2021/03/05 12:25:19;;;;;;;6.45;5.22;;;;;;;;;;5025585;28;20199;-72
2021/03/05 12:27:46;;;;;;;7.10;5.15;;;;;;;;;;5017681;28;20195;-74
2021/03/05 12:30:13;;;;;;;7.95;5.35;;;;;;;;;;5010307;28;20199;-74
2021/03/05 12:32:40;;;;;;;6.28;4.60;;;;;;;;;;5010628;28;20206;-75
2021/03/05 12:35:08;;;;;;;5.95;4.32;;;;;;;;;;5010208;28;20216;-73
2021/03/05 12:37:35;;;;;;;6.95;4.22;;;;;;;;;;5016366;28;20583;-74
2021/03/05 12:40:02;;;;;;;5.82;4.70;;;;;;;;;;5031900;28;20195;-72
2021/03/05 12:42:29;;;;;;;4.88;4.38;;;;;;;;;;5032159;28;20210;-73
2021/03/05 12:44:55;;;;;;;5.60;3.80;;;;;;;;;;5032127;28;20296;-74
2021/03/05 12:47:22;;;;;;;9.38;4.00;;;;;;;;;;5026020;28;20207;-73
2021/03/05 12:49:49;;;;;;;6.43;4.50;;;;;;;;;;5018123;28;20187;-72
2021/03/05 12:52:17;;;;;;;7.18;4.50;;;;;;;;;;5008540;28;20765;-73
2021/03/05 12:54:43;;;;;;;4.85;4.32;;;;;;;;;;5006639;28;20267;-73
2021/03/05 12:57:10;;;;;;;7.22;4.80;;;;;;;;;;5006358;28;20211;-73
2021/03/05 12:59:37;;;;;;;4.70;3.75;;;;;;;;;;5009713;28;20192;-73
2021/03/05 13:02:04;;;;;;;4.18;3.45;;;;;;;;;;5016974;28;20210;-74
2021/03/05 13:04:31;;;;;;;4.40;3.47;;;;;;;;;;5025085;28;20310;-74
2021/03/05 13:06:58;;;;;;;6.20;3.70;;;;;;;;;;5030423;28;20194;-74
2021/03/05 13:09:25;;;;;;;5.40;4.28;;;;;;;;;;5029901;28;20622;-75
2021/03/05 13:11:52;;;;;;;5.50;3.78;;;;;;;;;;5030095;28;20259;-74
2021/03/05 13:14:19;;;;;;;6.85;4.90;;;;;;;;;;5030484;28;20217;-73
2021/03/05 13:16:46;;;;;;;4.85;3.90;;;;;;;;;;5017180;28;20646;-74
2021/03/05 13:19:13;;;;;;;5.35;4.10;;;;;;;;;;5013114;28;20224;-74
2021/03/05 13:21:39;;;;;;;4.88;4.10;;;;;;;;;;5010269;28;20198;-73
2021/03/05 13:24:07;;;;;;;4.70;3.70;;;;;;;;;;5010094;28;20309;-74
2021/03/05 13:26:35;;;;;;;4.35;3.15;;;;;;;;;;5010437;28;20211;-74
2021/03/05 13:29:01;;;;;;;6.45;3.50;;;;;;;;;;5028609;28;20289;-74
2021/03/05 13:31:28;;;;;;;5.78;3.47;;;;;;;;;;5031580;28;20224;-75
2021/03/05 13:33:55;;;;;;;5.00;3.78;;;;;;;;;;5031323;28;20702;-74
2021/03/05 13:36:23;;;;;;;4.40;3.20;;;;;;;;;;5031355;28;20223;-73
2021/03/05 13:38:50;;;;;;;5.65;3.40;;;;;;;;;;5019035;28;20226;-74
2021/03/05 13:41:17;;;;;;;4.18;3.78;;;;;;;;;;5024671;28;20257;-73
2021/03/05 13:43:45;;;;;;;4.30;3.40;;;;;;;;;;5031878;28;20232;-74
2021/03/05 13:46:11;;;;;;;4.15;3.22;;;;;;;;;;5014930;28;20197;-74
2021/03/05 13:48:38;;;;;;;4.30;3.05;;;;;;;;;;5032984;28;20201;-74
2021/03/05 13:51:05;;;;;;;4.72;2.95;;;;;;;;;;5034184;28;20281;-75
2021/03/05 13:53:32;;;;;;;6.10;3.58;;;;;;;;;;5034787;28;20317;-74
2021/03/05 13:55:59;;;;;;;6.13;3.10;;;;;;;;;;5034758;28;20205;-74
2021/03/05 13:58:26;;;;;;;8.68;2.97;;;;;;;;;;5034650;28;20226;-75
2021/03/05 14:00:54;;;;;;;4.25;2.80;;;;;;;;;;5021943;28;20199;-73
2021/03/05 14:03:20;;;;;;;6.30;4.10;;;;;;;;;;5024449;28;20838;-75
2021/03/05 14:05:47;;;;;;;6.20;3.15;;;;;;;;;;5032730;28;20675;-76
2021/03/05 14:08:14;;;;;;;5.25;4.10;;;;;;;;;;5032282;28;20208;-75
2021/03/05 14:10:41;;;;;;;4.13;3.00;;;;;;;;;;5032368;28;20653;-75
2021/03/05 14:13:07;;;;;;;3.75;3.00;;;;;;;;;;5032588;28;20216;-73
2021/03/05 14:15:34;;;;;;;4.57;3.10;;;;;;;;;;5034513;28;20198;-74
2021/03/05 14:18:02;;;;;;;6.97;2.83;;;;;;;;;;5034324;28;20695;-73
2021/03/05 14:20:29;;;;;;;4.25;2.75;;;;;;;;;;5034450;28;20296;-75
2021/03/05 14:22:56;;;;;;;4.82;3.15;;;;;;;;;;5022617;28;20234;-74
2021/03/05 14:25:23;;;;;;;2.85;2.50;;;;;;;;;;5017322;28;20195;-73
2021/03/05 14:27:50;;;;;;;2.25;2.03;;;;;;;;;;5012503;28;20221;-74
2021/03/05 14:30:18;;;;;;;3.38;2.70;;;;;;;;;;5012281;28;20211;-74
2021/03/05 14:32:45;;;;;;;4.05;2.30;;;;;;;;;;5012637;28;20203;-74
2021/03/05 14:35:13;;;;;;;3.95;2.75;;;;;;;;;;5026733;28;20266;-74
2021/03/05 14:37:40;;;;;;;3.20;2.67;;;;;;;;;;5034045;28;20274;-73
2021/03/05 14:40:07;;;;;;;6.95;2.75;;;;;;;;;;5033979;28;20202;-75
2021/03/05 14:42:34;;;;;;;8.50;2.55;;;;;;;;;;5034066;28;20290;-74